Time;durP1;ratioP1;P1;durP2;ratioP2;P2;SDS_P1;SDS_P2;PMS_P1;PMS_P2;Temp;Humidity;BMP_temperature;BMP_pressure;BME280_temperature;BME280_humidity;BME280_pressure;Samples;Min_cycle;Max_cycle;Signal;HPM_P1;HPM_P2
2022/05/11 00:00:57;;;;;;;11.35;3.53;;;17.40;99.90;;;;;;5082087;28;20644;-83
2022/05/11 00:03:29;;;;;;;8.05;2.88;;;17.50;99.90;;;;;;5081758;28;20200;-83
2022/05/11 00:05:59;;;;;;;7.15;2.85;;;17.50;99.90;;;;;;5082505;28;20181;-84
2022/05/11 00:08:30;;;;;;;8.30;3.40;;;17.50;99.90;;;;;;5080891;28;20274;-84
2022/05/11 00:11:01;;;;;;;6.68;3.13;;;17.50;99.90;;;;;;5083596;28;20196;-83
2022/05/11 00:13:34;;;;;;;6.68;3.15;;;17.50;99.90;;;;;;5084451;28;20193;-83
2022/05/11 00:16:05;;;;;;;8.55;3.03;;;17.40;99.90;;;;;;5082783;28;20197;-84
2022/05/11 00:18:35;;;;;;;11.32;4.10;;;17.50;99.90;;;;;;5084178;28;20208;-82
2022/05/11 00:21:06;;;;;;;9.35;3.88;;;17.50;99.90;;;;;;5082542;28;20187;-81
2022/05/11 00:23:37;;;;;;;12.30;4.45;;;17.40;99.90;;;;;;5082015;28;20193;-82
2022/05/11 00:26:07;;;;;;;15.52;4.20;;;17.40;99.90;;;;;;5083007;28;20216;-81
2022/05/11 00:28:40;;;;;;;13.52;3.40;;;17.40;99.90;;;;;;5084531;28;20237;-82
2022/05/11 00:31:11;;;;;;;6.03;2.90;;;17.40;99.90;;;;;;5082507;28;20197;-83
2022/05/11 00:33:41;;;;;;;5.82;2.28;;;17.30;99.90;;;;;;5082957;28;20203;-81
2022/05/11 00:36:14;;;;;;;8.00;2.22;;;17.30;99.90;;;;;;5082362;28;20189;-81
2022/05/11 00:38:47;;;;;;;8.70;2.47;;;17.30;99.90;;;;;;5080769;28;20342;-81
2022/05/11 00:41:17;;;;;;;7.97;2.20;;;17.30;99.90;;;;;;5075007;28;20185;-81
2022/05/11 00:43:55;;;;;;;9.38;3.10;;;17.30;99.90;;;;;;5080274;28;20193;-81
2022/05/11 00:46:31;;;;;;;10.82;3.03;;;17.30;99.90;;;;;;5083774;28;20189;-80
2022/05/11 00:51:59;;;;;;;7.80;2.80;;;17.30;99.90;;;;;;5085050;28;20199;-81
2022/05/11 00:54:32;;;;;;;9.88;2.65;;;17.30;99.90;;;;;;5086860;28;20188;-81
2022/05/11 00:57:06;;;;;;;9.98;2.20;;;17.30;99.90;;;;;;5083534;28;20185;-80
2022/05/11 00:59:44;;;;;;;8.25;2.05;;;17.30;99.90;;;;;;5081166;28;20240;-80
2022/05/11 01:02:15;;;;;;;10.23;2.40;;;17.30;99.90;;;;;;5082824;28;20275;-80
2022/05/11 01:04:48;;;;;;;9.00;1.98;;;17.30;99.90;;;;;;5082814;28;20211;-79
2022/05/11 01:07:18;;;;;;;8.18;1.40;;;17.30;99.90;;;;;;5082606;28;20718;-79
2022/05/11 01:09:49;;;;;;;14.60;2.33;;;17.20;99.90;;;;;;5081651;28;20254;-77
2022/05/11 01:12:22;;;;;;;9.85;2.55;;;17.20;99.90;;;;;;5083167;28;20194;-78
2022/05/11 01:15:00;;;;;;;9.07;2.03;;;17.10;99.90;;;;;;5081588;28;20682;-78
2022/05/11 01:17:32;;;;;;;6.22;1.67;;;17.10;99.90;;;;;;5081927;28;20189;-79
2022/05/11 01:20:03;;;;;;;9.25;1.42;;;17.10;99.90;;;;;;5080953;28;20208;-82
2022/05/11 01:22:39;;;;;;;5.63;1.45;;;17.10;99.90;;;;;;5082935;28;20207;-82
2022/05/11 01:25:13;;;;;;;7.65;1.73;;;17.20;99.90;;;;;;5082600;28;20216;-81
2022/05/11 01:27:45;;;;;;;6.30;1.40;;;17.20;99.90;;;;;;5083558;28;20192;-82
2022/05/11 01:30:18;;;;;;;8.20;1.45;;;17.20;99.90;;;;;;5082127;28;20189;-81
2022/05/11 01:32:52;;;;;;;7.35;1.27;;;17.30;99.90;;;;;;5079961;28;20242;-78
2022/05/11 01:35:50;;;;;;;6.53;1.40;;;17.40;99.90;;;;;;5080866;28;20187;-79
2022/05/11 01:38:39;;;;;;;7.10;0.90;;;17.30;99.90;;;;;;5085988;28;20192;-79
2022/05/11 01:41:14;;;;;;;6.72;1.15;;;17.20;99.90;;;;;;5081340;28;20203;-83
2022/05/11 01:43:45;;;;;;;8.88;1.38;;;17.20;99.90;;;;;;5085821;28;20283;-81
2022/05/11 01:46:16;;;;;;;8.45;1.00;;;17.20;99.90;;;;;;5088654;28;20674;-83
2022/05/11 01:48:47;;;;;;;7.68;1.00;;;17.20;99.90;;;;;;5084994;28;20195;-82
2022/05/11 01:51:19;;;;;;;4.57;0.80;;;17.20;99.90;;;;;;5088271;28;20192;-80
2022/05/11 01:53:51;;;;;;;7.57;1.00;;;17.20;99.90;;;;;;5088892;28;20196;-79
2022/05/11 01:56:25;;;;;;;6.57;1.02;;;17.20;99.90;;;;;;5088368;28;20195;-82
2022/05/11 01:58:56;;;;;;;8.38;1.15;;;17.10;99.90;;;;;;5123998;22;20240;-73
2022/05/11 02:01:28;;;;;;;5.00;0.93;;;17.10;99.90;;;;;;5066450;28;20204;-74
2022/05/11 02:04:00;;;;;;;5.68;0.95;;;17.10;99.90;;;;;;5074052;28;20667;-79
2022/05/11 02:09:18;;;;;;;9.95;1.25;;;17.10;99.90;;;;;;5070971;28;20234;-78
2022/05/11 02:11:50;;;;;;;10.48;1.25;;;17.10;99.90;;;;;;5067459;28;20232;-79
2022/05/11 02:14:21;;;;;;;6.13;1.10;;;17.10;99.90;;;;;;5071865;28;20200;-75
2022/05/11 02:16:52;;;;;;;7.75;1.23;;;17.20;99.90;;;;;;5073480;28;20201;-77
2022/05/11 02:19:22;;;;;;;9.68;0.90;;;17.20;99.90;;;;;;5070192;28;20209;-78
2022/05/11 02:21:53;;;;;;;5.68;1.05;;;17.20;99.90;;;;;;5067542;28;20193;-76
2022/05/11 02:24:24;;;;;;;10.13;1.05;;;17.20;99.90;;;;;;5071165;28;20581;-80
2022/05/11 02:26:57;;;;;;;8.13;1.20;;;17.20;99.90;;;;;;5068235;28;20276;-80
2022/05/11 02:29:27;;;;;;;12.98;2.17;;;17.30;99.90;;;;;;5071237;28;20192;-75
2022/05/11 02:31:58;;;;;;;6.00;1.10;;;17.30;99.90;;;;;;5069909;28;20660;-75
2022/05/11 02:37:15;;;;;;;10.75;1.20;;;17.50;99.90;;;;;;5070802;28;20211;-76
2022/05/11 02:39:46;;;;;;;7.50;1.08;;;17.50;99.90;;;;;;5071778;28;20282;-75
2022/05/11 02:42:19;;;;;;;5.38;1.00;;;17.60;99.90;;;;;;5067273;28;20238;-75
2022/05/11 02:44:50;;;;;;;8.95;1.08;;;17.70;99.90;;;;;;5071756;28;20197;-81
2022/05/11 02:47:21;;;;;;;6.43;1.10;;;17.70;99.90;;;;;;5068297;28;20285;-75
2022/05/11 02:49:51;;;;;;;4.20;1.20;;;17.70;99.90;;;;;;5071393;28;20193;-78
2022/05/11 02:52:22;;;;;;;7.18;0.85;;;17.70;99.90;;;;;;5068945;28;20193;-78
2022/05/11 02:54:53;;;;;;;5.55;0.77;;;17.60;99.90;;;;;;5069904;28;20193;-80
2022/05/11 02:57:25;;;;;;;5.35;0.90;;;17.60;99.90;;;;;;5070481;28;20196;-77
2022/05/11 02:59:56;;;;;;;4.10;1.05;;;17.60;99.90;;;;;;5051661;28;20242;-77
2022/05/11 03:02:27;;;;;;;6.65;1.10;;;17.60;99.90;;;;;;5051264;28;20622;-81
2022/05/11 03:04:57;;;;;;;5.13;0.80;;;17.60;99.90;;;;;;5052109;28;20205;-80
2022/05/11 03:07:28;;;;;;;4.35;1.02;;;17.50;99.90;;;;;;5043744;28;20197;-79
2022/05/11 03:09:59;;;;;;;3.88;1.27;;;17.50;99.90;;;;;;5041387;28;20236;-78
2022/05/11 03:12:32;;;;;;;4.43;1.00;;;17.50;99.90;;;;;;5045809;28;20245;-78
2022/05/11 03:15:03;;;;;;;6.07;0.95;;;17.50;99.90;;;;;;5052267;28;20190;-78
2022/05/11 03:17:34;;;;;;;3.60;0.80;;;17.50;99.90;;;;;;5051681;28;20201;-78
2022/05/11 03:20:05;;;;;;;4.10;0.82;;;17.50;99.90;;;;;;5051428;28;20225;-78
2022/05/11 03:22:35;;;;;;;7.25;1.00;;;17.50;99.90;;;;;;5054189;28;20193;-79
2022/05/11 03:25:07;;;;;;;4.03;0.80;;;17.40;99.90;;;;;;5055181;28;20189;-78
2022/05/11 03:27:39;;;;;;;6.63;0.93;;;17.50;99.90;;;;;;5055040;28;20247;-78
2022/05/11 03:30:12;;;;;;;1.23;0.70;;;17.40;99.90;;;;;;5053766;28;20197;-77
2022/05/11 03:35:31;;;;;;;4.68;0.65;;;17.40;99.90;;;;;;5046451;28;20208;-82
2022/05/11 03:38:01;;;;;;;2.17;0.68;;;17.50;99.90;;;;;;5054761;28;20193;-77
2022/05/11 03:40:32;;;;;;;8.07;1.02;;;17.50;99.90;;;;;;5052453;28;20224;-77
2022/05/11 03:43:05;;;;;;;5.20;1.00;;;17.50;99.90;;;;;;5054139;28;20205;-78
2022/05/11 03:45:36;;;;;;;4.57;1.15;;;17.50;99.90;;;;;;5053613;28;20660;-78
2022/05/11 03:48:07;;;;;;;7.75;1.30;;;17.60;99.90;;;;;;5053281;28;20280;-78
2022/05/11 03:50:38;;;;;;;5.07;0.82;;;17.60;99.90;;;;;;5049115;28;20205;-78
2022/05/11 03:53:09;;;;;;;2.95;0.90;;;17.60;99.90;;;;;;5054384;28;20698;-77
2022/05/11 03:55:39;;;;;;;6.82;1.23;;;17.60;99.90;;;;;;5054484;28;20277;-77
2022/05/11 03:58:13;;;;;;;4.97;1.10;;;17.60;99.90;;;;;;5052318;28;20237;-77
2022/05/11 04:00:43;;;;;;;4.20;0.93;;;17.70;99.90;;;;;;5041576;28;20241;-77
2022/05/11 04:03:14;;;;;;;3.40;0.90;;;17.60;99.90;;;;;;5054501;28;20190;-77
2022/05/11 04:05:45;;;;;;;3.28;1.38;;;17.70;99.90;;;;;;5037744;28;20190;-77
2022/05/11 04:08:16;;;;;;;6.65;1.20;;;17.70;99.90;;;;;;5051940;28;20186;-78
2022/05/11 04:10:46;;;;;;;8.77;1.67;;;17.70;99.90;;;;;;5036272;28;20724;-78
2022/05/11 04:13:19;;;;;;;4.88;1.38;;;17.70;99.90;;;;;;5048305;28;20256;-77
2022/05/11 04:15:52;;;;;;;7.43;1.13;;;17.70;99.90;;;;;;5053597;28;20205;-81
2022/05/11 04:18:23;;;;;;;6.03;1.67;;;17.70;99.90;;;;;;5054119;28;20212;-77
2022/05/11 04:20:54;;;;;;;4.72;1.17;;;17.70;99.90;;;;;;5054081;28;20688;-77
2022/05/11 04:23:24;;;;;;;5.57;1.40;;;17.80;99.90;;;;;;5053870;28;20189;-77
2022/05/11 04:25:55;;;;;;;6.30;1.35;;;17.80;99.90;;;;;;5053982;28;20202;-77
2022/05/11 04:28:28;;;;;;;5.07;1.20;;;17.80;99.90;;;;;;5052123;28;20191;-77
2022/05/11 04:31:04;;;;;;;6.00;1.17;;;17.70;99.90;;;;;;5049379;28;20224;-78
2022/05/11 04:33:35;;;;;;;9.40;1.50;;;17.80;99.90;;;;;;5052814;28;20679;-77
2022/05/11 04:36:06;;;;;;;2.90;1.20;;;17.80;99.90;;;;;;5052564;28;20197;-78
2022/05/11 04:38:36;;;;;;;3.85;1.20;;;17.80;99.90;;;;;;5053558;28;20185;-77
2022/05/11 04:41:07;;;;;;;6.20;1.40;;;17.80;99.90;;;;;;5050667;28;20263;-77
2022/05/11 04:43:40;;;;;;;4.15;1.50;;;17.80;99.90;;;;;;5053473;28;20194;-77
2022/05/11 04:46:10;;;;;;;3.33;1.27;;;17.80;99.90;;;;;;5053555;28;20194;-77
2022/05/11 04:48:42;;;;;;;5.18;1.08;;;17.90;99.90;;;;;;5049275;28;20800;-78
2022/05/11 04:51:13;;;;;;;6.70;1.30;;;17.90;99.90;;;;;;5051946;28;20309;-79
2022/05/11 04:53:43;;;;;;;6.82;1.40;;;17.90;99.90;;;;;;5052919;28;20205;-80
2022/05/11 04:56:14;;;;;;;9.15;1.17;;;17.90;99.90;;;;;;5053459;28;20194;-77
2022/05/11 04:58:46;;;;;;;6.72;1.48;;;17.90;99.90;;;;;;5047015;28;20245;-78
2022/05/11 05:01:17;;;;;;;4.63;1.30;;;17.90;99.90;;;;;;5046851;28;20221;-78
2022/05/11 05:03:48;;;;;;;7.15;1.50;;;17.90;99.90;;;;;;5052081;28;20251;-78
2022/05/11 05:06:18;;;;;;;3.65;1.30;;;17.90;99.90;;;;;;5033530;28;20549;-78
2022/05/11 05:08:51;;;;;;;9.68;1.48;;;17.90;99.90;;;;;;5034227;28;20194;-77
2022/05/11 05:11:21;;;;;;;4.35;1.35;;;17.90;99.90;;;;;;5041243;28;20226;-78
2022/05/11 05:13:54;;;;;;;6.85;1.75;;;17.80;99.90;;;;;;5047621;28;20251;-79
2022/05/11 05:16:24;;;;;;;9.85;1.70;;;17.80;99.90;;;;;;5052681;28;20485;-79
2022/05/11 05:18:56;;;;;;;7.38;1.48;;;17.90;99.90;;;;;;5053027;28;20198;-78
2022/05/11 05:21:26;;;;;;;3.72;1.35;;;17.90;99.90;;;;;;5052863;28;20753;-79
2022/05/11 05:23:57;;;;;;;4.80;1.60;;;17.90;99.90;;;;;;5053227;28;20239;-80
2022/05/11 05:26:28;;;;;;;7.45;1.67;;;17.90;99.90;;;;;;5049546;28;20205;-79
2022/05/11 05:31:47;;;;;;;6.53;1.90;;;17.80;99.90;;;;;;5033267;28;20241;-77
2022/05/11 05:34:18;;;;;;;12.10;3.42;;;17.80;99.90;;;;;;5048113;28;20683;-76
2022/05/11 05:36:49;;;;;;;22.40;12.55;;;17.80;99.90;;;;;;5051848;28;20197;-78
2022/05/11 05:39:19;;;;;;;64.57;42.15;;;17.80;99.90;;;;;;5048254;28;20198;-82
2022/05/11 05:41:50;;;;;;;20.70;10.93;;;17.70;99.90;;;;;;5049416;28;20623;-80
2022/05/11 05:44:29;;;;;;;15.18;8.80;;;17.70;99.90;;;;;;5051704;28;20232;-79
2022/05/11 05:47:04;;;;;;;17.08;7.45;;;17.70;99.90;;;;;;5049740;28;20276;-77
2022/05/11 05:49:35;;;;;;;14.05;6.72;;;17.60;99.90;;;;;;5051772;28;20656;-77
2022/05/11 05:52:07;;;;;;;14.00;5.95;;;17.70;99.90;;;;;;5050963;28;20201;-78
2022/05/11 05:54:39;;;;;;;14.90;6.88;;;17.60;99.90;;;;;;5052135;28;20288;-77
2022/05/11 05:57:11;;;;;;;10.00;4.88;;;17.60;99.90;;;;;;5050683;28;20194;-77
2022/05/11 05:59:44;;;;;;;7.32;3.03;;;17.60;99.90;;;;;;5050952;28;20299;-76
2022/05/11 06:02:16;;;;;;;7.60;3.50;;;17.70;99.90;;;;;;5051471;28;20285;-75
2022/05/11 06:04:47;;;;;;;8.10;2.80;;;17.60;99.90;;;;;;5050592;28;20237;-77
2022/05/11 06:07:19;;;;;;;8.13;3.00;;;17.60;99.90;;;;;;5049404;28;20251;-77
2022/05/11 06:09:50;;;;;;;10.43;3.55;;;17.60;99.90;;;;;;5048678;28;20222;-82
2022/05/11 06:12:21;;;;;;;7.68;2.90;;;17.60;99.90;;;;;;5043258;28;20194;-77
2022/05/11 06:14:53;;;;;;;8.02;2.60;;;17.60;99.90;;;;;;5042423;28;20272;-75
2022/05/11 06:17:25;;;;;;;6.38;2.10;;;17.60;99.90;;;;;;5036349;28;20202;-75
2022/05/11 06:19:56;;;;;;;7.32;2.83;;;17.60;99.90;;;;;;5052005;28;20193;-76
2022/05/11 06:22:27;;;;;;;6.53;2.53;;;17.60;99.90;;;;;;5052576;28;20560;-77
2022/05/11 06:24:58;;;;;;;10.30;2.10;;;17.60;99.90;;;;;;5052146;28;20197;-77
2022/05/11 06:27:29;;;;;;;8.20;1.88;;;17.50;99.90;;;;;;5055070;28;20691;-76
2022/05/11 06:30:03;;;;;;;7.80;2.00;;;17.50;99.90;;;;;;5053818;28;20256;-76
2022/05/11 06:32:34;;;;;;;8.15;1.90;;;17.50;99.90;;;;;;5051780;28;20201;-76
2022/05/11 06:35:05;;;;;;;3.97;1.70;;;17.40;99.90;;;;;;5054864;28;20209;-78
2022/05/11 06:37:35;;;;;;;8.90;1.70;;;17.50;99.90;;;;;;5053079;28;20201;-75
2022/05/11 06:40:07;;;;;;;4.95;2.10;;;17.40;99.90;;;;;;5052316;28;20221;-77
2022/05/11 06:42:37;;;;;;;6.70;1.80;;;17.40;99.90;;;;;;5054306;28;20675;-79
2022/05/11 06:45:11;;;;;;;5.40;1.80;;;17.40;99.90;;;;;;5051776;28;20273;-78
2022/05/11 06:47:42;;;;;;;3.92;1.80;;;17.40;99.90;;;;;;5048730;28;20209;-76
2022/05/11 06:50:13;;;;;;;7.22;1.75;;;17.30;99.90;;;;;;5052358;28;20255;-79
2022/05/11 06:52:43;;;;;;;5.30;1.40;;;17.30;99.90;;;;;;5054374;28;20292;-76
2022/05/11 07:00:49;;;;;;;4.20;1.20;;;17.20;99.90;;;;;;5053587;28;20375;-78
2022/05/11 07:03:20;;;;;;;2.53;1.10;;;17.20;99.90;;;;;;5052608;28;20193;-80
2022/05/11 07:05:51;;;;;;;5.50;1.50;;;17.10;99.90;;;;;;5055599;28;20627;-78
2022/05/11 07:08:22;;;;;;;5.05;1.42;;;17.20;99.90;;;;;;5049715;28;20214;-81
2022/05/11 07:13:36;;;;;;;6.72;1.25;;;17.20;99.90;;;;;;5054417;28;20281;-80
2022/05/11 07:16:09;;;;;;;4.10;0.95;;;17.20;99.90;;;;;;5048298;28;20195;-79
2022/05/11 07:18:40;;;;;;;5.00;1.20;;;17.20;99.90;;;;;;5046860;28;20194;-79
2022/05/11 07:21:12;;;;;;;6.32;1.45;;;17.20;99.90;;;;;;5053920;28;20210;-78
2022/05/11 07:23:43;;;;;;;5.10;1.40;;;17.20;99.90;;;;;;5050718;28;20190;-78
2022/05/11 07:26:14;;;;;;;5.20;1.30;;;17.20;99.90;;;;;;5050384;28;20209;-78
2022/05/11 07:28:45;;;;;;;8.75;1.52;;;17.20;99.90;;;;;;5050964;28;20202;-78
2022/05/11 07:31:17;;;;;;;5.95;1.90;;;17.20;99.90;;;;;;5045586;28;20190;-79
2022/05/11 07:33:48;;;;;;;5.50;1.85;;;17.20;99.90;;;;;;5047794;28;20202;-79
2022/05/11 07:36:19;;;;;;;6.40;1.92;;;17.10;99.90;;;;;;5045344;28;20205;-79
2022/05/11 07:38:50;;;;;;;11.75;2.28;;;17.20;99.90;;;;;;5051668;28;20698;-79
2022/05/11 07:41:21;;;;;;;9.25;2.17;;;17.20;99.90;;;;;;5052780;28;20217;-79
2022/05/11 07:43:51;;;;;;;10.32;2.30;;;17.20;99.90;;;;;;5050700;28;20201;-77
2022/05/11 07:46:24;;;;;;;6.60;2.15;;;17.20;99.90;;;;;;5048037;28;20197;-79
2022/05/11 07:48:54;;;;;;;6.22;2.30;;;17.20;99.90;;;;;;5049196;28;20191;-79
2022/05/11 07:51:25;;;;;;;6.20;1.90;;;17.10;99.90;;;;;;5043322;28;20189;-78
2022/05/11 07:53:56;;;;;;;9.95;3.08;;;17.20;99.90;;;;;;5053524;28;20597;-78
2022/05/11 08:02:01;;;;;;;7.38;2.30;;;17.20;99.90;;;;;;5052534;28;20228;-78
2022/05/11 08:04:32;;;;;;;4.68;2.22;;;17.20;99.90;;;;;;5047483;28;20197;-80
2022/05/11 08:09:34;;;;;;;6.93;2.10;;;17.20;99.90;;;;;;5158593;22;22053;-82
2022/05/11 08:12:04;;;;;;;5.88;2.17;;;17.20;99.90;;;;;;5067500;28;20697;-84
2022/05/11 08:14:35;;;;;;;8.10;2.10;;;17.20;99.90;;;;;;5061791;28;20189;-84
2022/05/11 08:17:08;;;;;;;6.88;2.00;;;17.20;99.90;;;;;;5062548;28;20189;-85
2022/05/11 08:19:38;;;;;;;5.60;1.95;;;17.20;99.90;;;;;;5064192;28;20703;-84
2022/05/11 08:22:09;;;;;;;5.72;2.10;;;17.20;99.90;;;;;;5062434;28;20634;-84
2022/05/11 08:24:39;;;;;;;6.38;2.00;;;17.20;99.90;;;;;;5064256;28;20219;-85
2022/05/11 08:27:11;;;;;;;4.72;2.10;;;17.20;99.90;;;;;;5063301;28;20193;-86
2022/05/11 08:35:16;;;;;;;6.07;2.10;;;17.20;99.90;;;;;;5058830;28;20287;-85
2022/05/11 08:37:47;;;;;;;7.30;2.40;;;17.20;99.90;;;;;;5067443;28;20663;-85
2022/05/11 08:40:29;;;;;;;8.35;2.55;;;17.20;99.90;;;;;;5061361;28;20243;-84
2022/05/11 08:43:02;;;;;;;10.88;2.50;;;17.10;99.90;;;;;;5061400;28;20277;-85
2022/05/11 08:45:39;;;;;;;6.53;2.35;;;17.10;99.90;;;;;;5063050;28;20197;-85
2022/05/11 08:48:19;;;;;;;4.47;2.17;;;17.10;99.90;;;;;;5061199;28;20191;-86
2022/05/11 08:50:50;;;;;;;6.63;2.60;;;17.20;99.90;;;;;;5062059;28;20188;-83
2022/05/11 08:53:35;;;;;;;6.00;2.50;;;17.20;99.90;;;;;;5066283;28;20229;-85
2022/05/11 08:56:14;;;;;;;5.95;2.55;;;17.20;99.90;;;;;;5061648;28;20679;-84
2022/05/11 08:58:52;;;;;;;14.05;6.18;;;17.20;99.90;;;;;;5071857;28;20284;-82
2022/05/11 09:01:28;;;;;;;16.15;9.50;;;17.20;99.90;;;;;;5064141;28;20231;-83
2022/05/11 09:04:03;;;;;;;13.90;6.72;;;17.20;99.90;;;;;;5063336;28;20543;-82
2022/05/11 09:06:34;;;;;;;10.80;5.65;;;17.20;99.90;;;;;;5064356;28;20196;-81
2022/05/11 09:09:07;;;;;;;9.55;2.45;;;17.20;99.90;;;;;;5069483;28;20228;-80
2022/05/11 09:11:43;;;;;;;8.27;2.03;;;17.20;99.90;;;;;;5066601;28;20188;-82
2022/05/11 09:14:18;;;;;;;5.65;1.73;;;17.20;99.90;;;;;;5067921;28;20280;-82
2022/05/11 09:16:53;;;;;;;8.95;1.77;;;17.20;99.90;;;;;;5072987;28;20197;-82
2022/05/11 09:19:29;;;;;;;7.15;1.48;;;17.10;99.90;;;;;;5072435;28;20219;-84
2022/05/11 09:22:09;;;;;;;5.75;1.17;;;17.10;99.90;;;;;;5055156;28;20266;-85
2022/05/11 09:24:47;;;;;;;5.55;1.40;;;17.10;99.90;;;;;;5073251;28;20222;-85
2022/05/11 09:27:27;;;;;;;7.05;1.55;;;17.10;99.90;;;;;;5071701;28;20559;-84
2022/05/11 09:30:03;;;;;;;8.68;1.40;;;17.10;99.90;;;;;;5073414;28;20189;-86
2022/05/11 09:32:38;;;;;;;3.53;1.10;;;17.10;99.90;;;;;;5073194;28;20235;-86
2022/05/11 09:35:26;;;;;;;8.82;1.35;;;17.20;99.90;;;;;;5072918;28;20271;-82
2022/05/11 09:38:07;;;;;;;5.35;1.10;;;17.20;99.90;;;;;;5057389;28;20660;-84
2022/05/11 09:40:57;;;;;;;8.85;1.50;;;17.10;99.90;;;;;;5053107;28;20232;-84
2022/05/11 09:43:33;;;;;;;5.35;1.20;;;17.20;99.90;;;;;;5053241;28;20194;-84
2022/05/11 09:46:17;;;;;;;4.30;1.08;;;17.20;99.90;;;;;;5052951;28;20192;-83
2022/05/11 09:48:58;;;;;;;3.88;1.02;;;17.20;99.90;;;;;;5067758;28;20200;-84
2022/05/11 09:51:38;;;;;;;3.95;1.15;;;17.20;99.90;;;;;;5071043;28;20204;-85
2022/05/11 09:54:27;;;;;;;9.23;1.10;;;17.20;99.90;;;;;;5072922;28;20195;-84
2022/05/11 09:57:03;;;;;;;4.70;1.40;;;17.20;99.90;;;;;;5075787;28;20192;-84
2022/05/11 09:59:36;;;;;;;4.82;1.30;;;17.20;99.90;;;;;;5076912;28;20196;-86
2022/05/11 10:02:26;;;;;;;5.40;1.30;;;17.20;99.90;;;;;;5076711;28;20221;-85
2022/05/11 10:05:03;;;;;;;10.88;1.60;;;17.20;99.90;;;;;;5076916;28;20224;-84
2022/05/11 10:07:39;;;;;;;8.80;2.42;;;17.20;99.90;;;;;;5064562;28;20593;-85
2022/05/11 10:10:14;;;;;;;7.20;1.60;;;17.20;99.90;;;;;;5058826;28;20196;-85
2022/05/11 10:12:46;;;;;;;6.57;1.70;;;17.30;99.90;;;;;;5076807;28;20275;-85
2022/05/11 10:24:16;;;;;;;7.30;2.00;;;17.20;99.90;;;;;;5056863;28;20189;-86
2022/05/11 10:26:56;;;;;;;7.55;2.05;;;17.20;99.90;;;;;;5056488;28;20258;-86
2022/05/11 10:29:36;;;;;;;5.15;1.90;;;17.20;99.90;;;;;;5056432;28;20201;-84
2022/05/11 10:32:26;;;;;;;5.55;1.70;;;17.20;99.90;;;;;;5056406;28;20193;-85
2022/05/11 10:35:03;;;;;;;6.97;1.75;;;17.20;99.90;;;;;;5059802;28;20216;-84
2022/05/11 10:37:40;;;;;;;5.55;1.85;;;17.20;99.90;;;;;;5070795;28;20605;-84
2022/05/11 10:40:24;;;;;;;7.47;1.75;;;17.20;99.90;;;;;;5075965;28;20225;-85
2022/05/11 10:43:08;;;;;;;7.93;2.20;;;17.20;99.90;;;;;;5056945;28;20271;-83
2022/05/11 10:45:47;;;;;;;7.95;2.60;;;17.20;99.90;;;;;;5055901;28;20251;-84
2022/05/11 10:48:37;;;;;;;7.88;2.47;;;17.20;99.90;;;;;;5055735;28;20243;-84
2022/05/11 10:51:16;;;;;;;7.35;2.17;;;17.20;99.90;;;;;;5056017;28;20228;-85
2022/05/11 10:53:53;;;;;;;9.00;2.55;;;17.20;99.90;;;;;;5070952;28;20617;-85
2022/05/11 10:56:49;;;;;;;8.68;2.40;;;17.20;99.90;;;;;;5073405;28;20205;-85
2022/05/11 10:59:42;;;;;;;7.57;2.50;;;17.20;99.90;;;;;;5055477;28;20284;-83
2022/05/11 11:02:35;;;;;;;7.60;2.42;;;17.20;99.90;;;;;;5069106;28;20621;-83
2022/05/11 11:05:12;;;;;;;9.25;2.50;;;17.20;99.90;;;;;;5072645;28;20208;-84
2022/05/11 11:07:52;;;;;;;8.32;2.35;;;17.20;99.90;;;;;;5068191;28;20274;-86
2022/05/11 11:10:31;;;;;;;7.57;2.38;;;17.20;99.90;;;;;;5075405;28;20196;-85
2022/05/11 11:13:18;;;;;;;8.05;2.60;;;17.20;99.90;;;;;;5070815;28;20718;-82
2022/05/11 11:15:50;;;;;;;6.10;2.63;;;17.20;99.90;;;;;;5075426;28;20197;-85
2022/05/11 11:18:33;;;;;;;8.32;2.55;;;17.20;99.90;;;;;;5074343;28;20201;-85
2022/05/11 11:21:05;;;;;;;6.05;2.45;;;17.20;99.90;;;;;;5075516;28;20195;-86
2022/05/11 11:23:41;;;;;;;6.43;2.42;;;17.20;99.90;;;;;;5074992;28;20202;-81
2022/05/11 11:26:14;;;;;;;6.93;2.70;;;17.20;99.90;;;;;;5073888;28;20246;-81
2022/05/11 11:29:20;;;;;;;6.75;2.50;;;17.20;99.90;;;;;;5070693;28;20243;-79
2022/05/11 11:32:16;;;;;;;7.30;2.63;;;17.20;99.90;;;;;;5061842;28;20274;-84
2022/05/11 11:34:51;;;;;;;6.80;2.33;;;17.20;99.90;;;;;;5069518;28;20201;-81
2022/05/11 11:38:01;;;;;;;4.47;2.13;;;17.20;99.90;;;;;;5070484;28;20189;-81
2022/05/11 11:40:37;;;;;;;9.57;2.03;;;17.20;99.90;;;;;;5072814;28;20224;-85
2022/05/11 11:43:45;;;;;;;8.75;1.98;;;17.20;99.90;;;;;;5071707;28;20212;-82
2022/05/11 11:46:33;;;;;;;5.03;1.88;;;17.20;99.90;;;;;;5073224;28;20196;-83
2022/05/11 11:49:10;;;;;;;5.88;1.60;;;17.20;99.90;;;;;;5072802;28;20201;-83
2022/05/11 11:52:00;;;;;;;5.05;1.50;;;17.20;99.90;;;;;;5068496;28;20696;-83
2022/05/11 11:54:36;;;;;;;5.32;1.85;;;17.20;99.90;;;;;;5054781;28;20194;-81
2022/05/11 11:57:08;;;;;;;4.40;1.50;;;17.20;99.90;;;;;;5058164;28;20271;-82
2022/05/11 11:59:42;;;;;;;7.55;1.45;;;17.20;99.90;;;;;;5074556;28;20640;-84
2022/05/11 12:02:30;;;;;;;10.65;2.20;;;17.20;99.90;;;;;;5074602;28;20755;-84
2022/05/11 12:05:12;;;;;;;4.00;2.00;;;17.20;99.90;;;;;;5074521;28;20193;-85
2022/05/11 12:16:27;;;;;;;6.43;1.73;;;17.20;99.90;;;;;;5066568;28;20199;-83
2022/05/11 12:19:11;;;;;;;2.90;1.67;;;17.20;99.90;;;;;;5073392;28;20709;-83
2022/05/11 12:21:43;;;;;;;5.95;1.50;;;17.20;99.90;;;;;;5074290;28;20185;-82
2022/05/11 12:24:25;;;;;;;5.93;2.22;;;17.20;99.90;;;;;;5074143;28;20663;-82
2022/05/11 12:26:59;;;;;;;4.50;2.08;;;17.20;99.90;;;;;;5070786;28;20200;-82
2022/05/11 12:32:25;;;;;;;3.42;2.05;;;17.20;99.90;;;;;;5069787;28;20202;-82
2022/05/11 12:34:58;;;;;;;6.78;1.90;;;17.20;99.90;;;;;;5068304;28;20197;-81
2022/05/11 12:37:31;;;;;;;4.93;1.80;;;17.20;99.90;;;;;;5068949;28;20189;-81
2022/05/11 12:40:02;;;;;;;5.63;1.88;;;17.20;99.90;;;;;;5071129;28;20242;-82
2022/05/11 12:42:36;;;;;;;4.22;1.52;;;17.20;99.90;;;;;;5062193;28;20212;-84
2022/05/11 12:45:11;;;;;;;3.28;1.35;;;17.20;99.90;;;;;;5063777;28;20281;-84
2022/05/11 12:47:46;;;;;;;4.15;1.60;;;17.20;99.90;;;;;;5070317;28;20271;-84
2022/05/11 12:50:28;;;;;;;2.55;1.42;;;17.20;99.90;;;;;;5070690;28;20257;-84
2022/05/11 12:53:09;;;;;;;6.70;1.85;;;17.20;99.90;;;;;;5073430;28;20280;-84
2022/05/11 12:55:40;;;;;;;8.77;1.98;;;17.20;99.90;;;;;;5069786;28;20197;-83
2022/05/11 12:58:17;;;;;;;4.00;1.63;;;17.20;99.90;;;;;;5069881;28;20193;-83
2022/05/11 13:00:48;;;;;;;4.70;1.90;;;17.20;99.90;;;;;;5072960;28;20626;-84
2022/05/11 13:03:28;;;;;;;4.57;1.88;;;17.20;99.90;;;;;;5068629;28;20209;-85
2022/05/11 13:06:04;;;;;;;5.60;2.00;;;17.20;99.90;;;;;;5072632;28;20222;-85
2022/05/11 13:08:39;;;;;;;3.40;1.55;;;17.20;99.90;;;;;;5071222;28;20235;-85
2022/05/11 13:11:14;;;;;;;2.83;1.63;;;17.10;99.90;;;;;;5070557;28;20230;-86
2022/05/11 13:13:46;;;;;;;4.75;1.90;;;17.10;99.90;;;;;;5065781;28;20287;-83
2022/05/11 13:16:21;;;;;;;4.53;1.70;;;17.10;99.90;;;;;;5052976;28;20193;-84
2022/05/11 13:18:52;;;;;;;4.78;1.88;;;17.20;99.90;;;;;;5064666;28;20246;-84
2022/05/11 13:21:37;;;;;;;6.72;1.98;;;17.20;99.90;;;;;;5068169;28;20246;-83
2022/05/11 13:24:09;;;;;;;6.25;1.95;;;17.10;99.90;;;;;;5068483;28;20228;-82
2022/05/11 13:26:45;;;;;;;6.53;1.73;;;17.10;99.90;;;;;;5072999;28;20626;-80
2022/05/11 13:29:22;;;;;;;7.15;1.73;;;17.10;99.90;;;;;;5072086;28;20188;-81
2022/05/11 13:32:07;;;;;;;5.90;1.80;;;17.10;99.90;;;;;;5071460;28;20196;-83
2022/05/11 13:34:39;;;;;;;5.05;1.40;;;17.10;99.90;;;;;;5053929;28;20280;-83
2022/05/11 13:37:26;;;;;;;2.45;1.33;;;17.10;99.90;;;;;;5053234;28;20194;-82
2022/05/11 13:39:57;;;;;;;7.70;1.23;;;17.10;99.90;;;;;;5057995;28;20204;-83
2022/05/11 13:42:30;;;;;;;6.63;1.10;;;17.10;99.90;;;;;;5073169;28;20578;-82
2022/05/11 13:45:04;;;;;;;4.82;1.35;;;17.00;99.90;;;;;;5071053;28;20246;-86
2022/05/11 13:50:39;;;;;;;1.95;0.80;;;17.00;99.90;;;;;;5061322;28;20597;-85
2022/05/11 13:53:29;;;;;;;4.43;1.30;;;17.00;99.90;;;;;;5061244;28;20279;-84
2022/05/11 13:56:06;;;;;;;4.38;1.00;;;17.00;99.90;;;;;;5071598;28;20185;-84
2022/05/11 13:58:39;;;;;;;3.33;1.08;;;17.10;99.90;;;;;;5059818;28;20664;-85
2022/05/11 14:01:13;;;;;;;3.30;0.90;;;17.00;99.90;;;;;;5055564;28;20541;-86
2022/05/11 14:03:45;;;;;;;2.60;0.80;;;17.00;99.90;;;;;;5062825;28;20596;-85
2022/05/11 14:06:19;;;;;;;3.30;0.70;;;17.00;99.90;;;;;;5065473;28;20243;-84
2022/05/11 14:08:51;;;;;;;2.55;0.80;;;17.00;99.90;;;;;;5069420;28;20595;-86
2022/05/11 14:11:24;;;;;;;6.03;0.90;;;17.00;99.90;;;;;;5070094;28;20205;-86
2022/05/11 14:13:54;;;;;;;2.97;0.80;;;17.00;99.90;;;;;;5070631;28;20232;-85
2022/05/11 14:16:28;;;;;;;4.05;0.95;;;17.00;99.90;;;;;;5065354;28;20192;-86
2022/05/11 14:18:59;;;;;;;3.28;0.70;;;17.00;99.90;;;;;;5061175;28;20227;-85
2022/05/11 14:21:30;;;;;;;2.58;0.90;;;17.00;99.90;;;;;;5065386;28;20193;-82